createdAt,value
2023-04-17T00:00:52.636Z,15.66
2023-04-17T00:03:19.752Z,15.83
2023-04-17T00:05:49.002Z,15.94
2023-04-17T00:08:16.243Z,15.84
2023-04-17T00:10:45.550Z,15.92
2023-04-17T00:13:16.323Z,15.89
2023-04-17T00:15:44.628Z,16.07
2023-04-17T00:18:11.679Z,15.77
2023-04-17T00:20:39.106Z,15.72
2023-04-17T00:23:07.324Z,15.68
2023-04-17T00:25:34.672Z,16.00
2023-04-17T00:28:02.104Z,15.93
2023-04-17T00:30:29.726Z,15.94
2023-04-17T00:32:56.813Z,15.85
2023-04-17T00:35:23.874Z,15.89
2023-04-17T00:37:51.572Z,15.77
2023-04-17T00:40:19.158Z,15.90
2023-04-17T00:42:52.883Z,15.86
2023-04-17T00:45:21.510Z,15.93
2023-04-17T00:47:49.808Z,15.85
2023-04-17T00:50:17.366Z,15.88
2023-04-17T00:52:45.355Z,15.78
2023-04-17T00:55:14.351Z,16.09
2023-04-17T00:57:42.460Z,16.01
2023-04-17T01:00:10.411Z,16.05
2023-04-17T01:02:38.194Z,16.09
2023-04-17T01:05:05.877Z,16.12
2023-04-17T01:07:33.022Z,15.96
2023-04-17T01:10:00.265Z,15.91
2023-04-17T01:12:27.394Z,16.00
2023-04-17T01:14:56.279Z,15.71
2023-04-17T01:17:27.882Z,15.15
2023-04-17T01:19:55.652Z,15.54
2023-04-17T01:22:22.666Z,15.83
2023-04-17T01:24:54.358Z,15.71
2023-04-17T01:27:22.534Z,15.05
2023-04-17T01:29:49.700Z,15.74
2023-04-17T01:32:18.019Z,15.98
2023-04-17T01:34:45.322Z,15.91
2023-04-17T01:37:12.406Z,15.93
2023-04-17T01:39:39.845Z,15.97
2023-04-17T01:42:07.008Z,15.54
2023-04-17T01:44:34.425Z,15.82
2023-04-17T01:47:01.429Z,15.92
2023-04-17T01:49:28.566Z,16.15
2023-04-17T01:51:55.579Z,16.07
2023-04-17T01:54:23.759Z,16.12
2023-04-17T01:56:51.322Z,16.13
2023-04-17T01:59:18.298Z,15.93
2023-04-17T02:01:45.911Z,16.13
2023-04-17T02:04:13.129Z,15.85
2023-04-17T02:06:40.291Z,15.97
2023-04-17T02:09:07.455Z,15.66
2023-04-17T02:11:38.956Z,15.63
2023-04-17T02:14:06.963Z,15.48
2023-04-17T02:16:34.667Z,15.42
2023-04-17T02:19:01.711Z,15.52
2023-04-17T02:21:31.212Z,15.33
2023-04-17T02:23:58.212Z,15.27
2023-04-17T02:26:28.853Z,15.03
2023-04-17T02:28:56.298Z,15.27
2023-04-17T02:31:24.331Z,15.03
2023-04-17T02:33:51.842Z,15.06
2023-04-17T02:36:18.928Z,14.83
2023-04-17T02:38:46.397Z,14.86
2023-04-17T02:41:13.876Z,14.95
2023-04-17T02:43:41.294Z,15.24
2023-04-17T02:46:11.483Z,15.45
2023-04-17T02:48:38.578Z,15.43
2023-04-17T02:51:06.021Z,15.53
2023-04-17T02:53:33.057Z,15.11
2023-04-17T02:56:00.132Z,15.35
2023-04-17T02:58:27.872Z,15.44
2023-04-17T03:01:02.491Z,15.70
2023-04-17T03:03:35.227Z,15.38
2023-04-17T03:06:05.298Z,15.30
2023-04-17T03:08:35.615Z,15.28
2023-04-17T03:11:03.461Z,14.97
2023-04-17T03:13:31.457Z,15.35
2023-04-17T03:15:59.040Z,15.17
2023-04-17T03:18:26.208Z,15.15
2023-04-17T03:20:54.194Z,15.35
2023-04-17T03:23:21.230Z,15.29
2023-04-17T03:25:48.738Z,15.66
2023-04-17T03:28:16.651Z,15.98
2023-04-17T03:30:44.886Z,16.10
2023-04-17T03:33:12.326Z,16.11
2023-04-17T03:35:39.346Z,16.02
2023-04-17T03:38:09.609Z,15.85
2023-04-17T03:40:36.706Z,15.70
2023-04-17T03:43:04.577Z,15.69
2023-04-17T03:45:33.223Z,15.30
2023-04-17T03:48:01.295Z,15.50
2023-04-17T03:50:29.224Z,15.66
2023-04-17T03:52:58.124Z,15.67
2023-04-17T03:55:27.416Z,15.47
2023-04-17T03:57:54.967Z,15.63
2023-04-17T04:00:23.534Z,15.59
2023-04-17T04:02:55.691Z,15.71
2023-04-17T04:05:27.479Z,15.52
2023-04-17T04:07:55.572Z,15.56
2023-04-17T04:10:32.566Z,15.62
2023-04-17T04:13:00.131Z,15.70
2023-04-17T04:15:28.482Z,15.70
2023-04-17T04:18:00.294Z,15.89
2023-04-17T04:20:27.819Z,15.74
2023-04-17T04:23:06.738Z,15.88
2023-04-17T04:25:34.163Z,15.86
2023-04-17T04:28:17.759Z,15.91
2023-04-17T04:30:50.561Z,15.93
2023-04-17T04:33:20.854Z,15.90
2023-04-17T04:35:51.887Z,15.80
2023-04-17T04:38:19.368Z,15.62
2023-04-17T04:40:50.026Z,15.59
2023-04-17T04:43:19.600Z,15.67
2023-04-17T04:45:48.822Z,15.59
2023-04-17T04:48:16.465Z,15.62
2023-04-17T04:50:45.524Z,15.45
2023-04-17T04:53:13.058Z,15.41
2023-04-17T04:55:46.097Z,15.41
2023-04-17T04:58:13.802Z,15.61
2023-04-17T05:00:41.868Z,14.88
2023-04-17T05:03:13.430Z,15.31
2023-04-17T05:05:43.293Z,15.27
2023-04-17T05:08:13.969Z,15.47
2023-04-17T05:10:42.366Z,15.34
2023-04-17T05:13:09.413Z,15.25
2023-04-17T05:15:37.784Z,15.15
2023-04-17T05:18:05.377Z,15.48
2023-04-17T05:20:34.622Z,15.48
2023-04-17T05:23:02.043Z,15.55
2023-04-17T05:25:29.125Z,15.46
2023-04-17T05:27:57.691Z,15.56
2023-04-17T05:30:25.230Z,15.78
2023-04-17T05:33:04.460Z,15.58
2023-04-17T05:36:01.039Z,15.74
2023-04-17T05:38:28.576Z,15.76
2023-04-17T05:40:56.043Z,15.35
2023-04-17T05:43:23.530Z,15.15
2023-04-17T05:45:52.531Z,15.21
2023-04-17T05:48:19.974Z,15.54
2023-04-17T05:50:47.552Z,15.60
2023-04-17T05:53:15.650Z,15.42
2023-04-17T05:55:49.384Z,15.28
2023-04-17T05:58:23.732Z,15.41
2023-04-17T06:00:54.327Z,15.36
2023-04-17T06:03:22.087Z,15.73
2023-04-17T06:05:57.246Z,16.01
2023-04-17T06:08:26.116Z,15.90
2023-04-17T06:10:55.970Z,15.48
2023-04-17T06:13:24.480Z,15.67
2023-04-17T06:15:52.431Z,15.66
2023-04-17T06:18:19.440Z,15.81
2023-04-17T06:20:47.153Z,15.78
2023-04-17T06:23:14.158Z,15.72
2023-04-17T06:25:42.721Z,15.81
2023-04-17T06:28:10.442Z,15.33
2023-04-17T06:30:38.244Z,15.64
2023-04-17T06:33:06.841Z,15.64
2023-04-17T06:35:35.275Z,15.68
2023-04-17T06:38:12.294Z,15.48
2023-04-17T06:40:39.933Z,15.60
2023-04-17T06:43:07.864Z,15.34
2023-04-17T06:45:42.105Z,15.16
2023-04-17T06:48:09.711Z,15.29
2023-04-17T06:50:39.250Z,15.36
2023-04-17T06:53:06.807Z,15.43
2023-04-17T06:55:33.853Z,15.53
2023-04-17T06:58:00.881Z,15.24
2023-04-17T07:00:28.070Z,15.55
2023-04-17T07:02:55.343Z,15.45
2023-04-17T07:05:22.868Z,15.83
2023-04-17T07:07:50.081Z,15.88
2023-04-17T07:10:19.455Z,15.90
2023-04-17T07:12:46.891Z,15.97
2023-04-17T07:15:14.161Z,15.75
2023-04-17T07:17:41.214Z,15.89
2023-04-17T07:20:09.178Z,15.66
2023-04-17T07:22:36.428Z,15.56
2023-04-17T07:25:04.577Z,15.74
2023-04-17T07:27:31.980Z,15.53
2023-04-17T07:29:58.932Z,15.18
2023-04-17T07:32:26.128Z,15.61
2023-04-17T07:34:53.196Z,15.26
2023-04-17T07:37:21.422Z,15.89
2023-04-17T07:39:52.813Z,16.07
2023-04-17T07:42:19.814Z,15.92
2023-04-17T07:44:48.560Z,16.16
2023-04-17T07:47:15.989Z,15.74
2023-04-17T07:49:46.529Z,15.82
2023-04-17T07:52:15.234Z,15.65
2023-04-17T07:54:42.315Z,15.77
2023-04-17T07:57:09.310Z,15.19
2023-04-17T07:59:37.026Z,14.45
2023-04-17T08:02:04.063Z,14.62
2023-04-17T08:04:34.094Z,14.86
2023-04-17T08:07:01.497Z,15.15
2023-04-17T08:09:28.984Z,15.38
2023-04-17T08:11:58.188Z,15.48
2023-04-17T08:14:25.902Z,15.88
2023-04-17T08:16:53.423Z,15.67
2023-04-17T08:19:21.102Z,15.68
2023-04-17T08:21:49.086Z,15.22
2023-04-17T08:24:19.461Z,15.08
2023-04-17T08:26:47.728Z,15.75
2023-04-17T08:29:15.805Z,15.47
2023-04-17T08:31:43.383Z,15.22
2023-04-17T08:34:14.897Z,15.31
2023-04-17T08:36:43.236Z,15.71
2023-04-17T08:39:12.397Z,15.72
2023-04-17T08:41:51.062Z,15.83
2023-04-17T08:44:21.059Z,15.87
2023-04-17T08:46:48.868Z,15.74
2023-04-17T08:49:16.480Z,15.43
2023-04-17T08:51:43.976Z,15.84
2023-04-17T08:54:11.053Z,15.31
2023-04-17T08:56:38.054Z,15.25
2023-04-17T08:59:05.242Z,15.72
2023-04-17T09:01:33.848Z,15.41
2023-04-17T09:04:01.383Z,15.75
2023-04-17T09:06:29.676Z,15.62
2023-04-17T09:09:01.897Z,15.80
2023-04-17T09:11:28.907Z,15.82
2023-04-17T09:13:56.227Z,15.55
2023-04-17T09:16:25.739Z,15.63
2023-04-17T09:19:06.856Z,15.67
2023-04-17T09:21:33.836Z,16.05
2023-04-17T09:24:01.052Z,15.29
2023-04-17T09:26:33.193Z,15.63
2023-04-17T09:29:10.620Z,16.47
2023-04-17T09:31:41.118Z,16.15
2023-04-17T09:34:13.612Z,15.96
2023-04-17T09:36:43.533Z,15.63
2023-04-17T09:39:26.240Z,16.23
2023-04-17T09:42:05.028Z,16.65
2023-04-17T09:44:32.467Z,16.26
2023-04-17T09:47:01.852Z,16.50
2023-04-17T09:49:39.715Z,16.65
2023-04-17T09:52:09.836Z,16.30
2023-04-17T09:54:38.160Z,16.73
2023-04-17T09:57:10.590Z,16.90
2023-04-17T09:59:41.694Z,17.46
2023-04-17T10:02:10.523Z,16.74
2023-04-17T10:04:41.912Z,17.02
2023-04-17T10:07:09.605Z,17.11
2023-04-17T10:09:37.556Z,16.85
2023-04-17T10:12:05.685Z,16.46
2023-04-17T10:14:38.668Z,16.65
2023-04-17T10:17:31.760Z,17.06
2023-04-17T10:20:20.115Z,16.89
2023-04-17T10:22:54.810Z,16.92
2023-04-17T10:25:24.930Z,17.35
2023-04-17T10:28:02.504Z,17.45
2023-04-17T10:30:56.020Z,17.40
2023-04-17T10:33:27.256Z,17.30
2023-04-17T10:35:54.819Z,17.28
2023-04-17T10:38:33.063Z,18.16
2023-04-17T10:41:04.168Z,18.07
2023-04-17T10:43:31.899Z,18.06
2023-04-17T10:46:11.088Z,17.76
2023-04-17T10:48:52.911Z,18.02
2023-04-17T10:51:23.040Z,18.60
2023-04-17T10:54:02.114Z,17.34
2023-04-17T10:56:46.187Z,17.36
2023-04-17T10:59:19.097Z,17.30
2023-04-17T11:01:49.150Z,17.16
2023-04-17T11:04:20.290Z,16.75
2023-04-17T11:06:47.660Z,16.19
2023-04-17T11:09:15.904Z,16.73
2023-04-17T11:11:45.225Z,15.44
2023-04-17T11:14:18.355Z,15.34
2023-04-17T11:16:48.839Z,15.96
2023-04-17T11:19:26.500Z,15.71
2023-04-17T11:21:58.474Z,16.15
2023-04-17T11:24:31.566Z,16.54
2023-04-17T11:27:01.386Z,16.53
2023-04-17T11:29:28.731Z,16.14
2023-04-17T11:31:58.287Z,17.04
2023-04-17T11:34:28.488Z,17.37
2023-04-17T11:36:58.607Z,17.57
2023-04-17T11:39:29.702Z,17.41
2023-04-17T11:41:57.236Z,17.21
2023-04-17T11:44:25.437Z,16.71
2023-04-17T11:46:54.558Z,16.72
2023-04-17T11:49:30.334Z,17.04
2023-04-17T11:52:00.447Z,17.39
2023-04-17T11:54:29.392Z,17.33
2023-04-17T11:57:01.489Z,18.07
2023-04-17T11:59:33.904Z,17.84
2023-04-17T12:02:02.430Z,17.94
2023-04-17T12:04:33.582Z,18.04
2023-04-17T12:07:06.290Z,18.14
2023-04-17T12:09:34.351Z,18.55
2023-04-17T12:12:04.982Z,19.18
2023-04-17T12:14:32.512Z,18.47
2023-04-17T12:17:00.407Z,18.99
2023-04-17T12:19:29.354Z,19.25
2023-04-17T12:21:57.362Z,18.86
2023-04-17T12:24:25.264Z,18.35
2023-04-17T12:26:53.135Z,18.42
2023-04-17T12:29:28.984Z,20.81
2023-04-17T12:32:03.987Z,19.00
2023-04-17T12:34:31.735Z,17.71
2023-04-17T12:36:59.198Z,17.10
2023-04-17T12:39:26.940Z,16.75
2023-04-17T12:41:54.060Z,17.50
2023-04-17T12:44:21.457Z,17.01
2023-04-17T12:46:48.481Z,16.82
2023-04-17T12:49:15.904Z,17.00
2023-04-17T12:51:42.888Z,16.84
2023-04-17T12:54:10.053Z,16.86
2023-04-17T12:56:37.704Z,16.78
2023-04-17T12:59:05.730Z,18.64
2023-04-17T13:01:33.209Z,18.39
2023-04-17T13:04:00.439Z,17.51
2023-04-17T13:06:28.202Z,16.85
2023-04-17T13:08:55.311Z,17.15
2023-04-17T13:11:22.685Z,16.95
2023-04-17T13:13:54.516Z,16.27
2023-04-17T13:16:21.585Z,16.75
2023-04-17T13:18:48.699Z,17.22
2023-04-17T13:21:16.155Z,17.66
2023-04-17T13:23:43.145Z,17.10
2023-04-17T13:26:10.271Z,17.05
2023-04-17T13:28:37.777Z,17.09
2023-04-17T13:31:06.126Z,16.82
2023-04-17T13:33:35.972Z,16.39
2023-04-17T13:36:03.119Z,17.38
2023-04-17T13:38:38.227Z,17.84
2023-04-17T13:41:05.840Z,17.64
2023-04-17T13:43:33.194Z,17.83
2023-04-17T13:46:00.264Z,17.48
2023-04-17T13:48:27.684Z,17.79
2023-04-17T13:50:54.659Z,18.32
2023-04-17T13:53:22.000Z,17.78
2023-04-17T13:55:50.355Z,17.32
2023-04-17T13:58:17.339Z,16.68
2023-04-17T14:00:44.356Z,17.14
2023-04-17T14:03:11.515Z,17.18
2023-04-17T14:05:39.155Z,16.59
2023-04-17T14:08:06.597Z,17.79
2023-04-17T14:10:33.599Z,18.09
2023-04-17T14:13:01.050Z,17.23
2023-04-17T14:15:29.047Z,17.63
2023-04-17T14:17:57.209Z,18.10
2023-04-17T14:20:24.385Z,17.27
2023-04-17T14:22:54.216Z,17.89
2023-04-17T14:25:21.336Z,18.12
2023-04-17T14:27:48.608Z,18.13
2023-04-17T14:30:16.050Z,17.79
2023-04-17T14:32:43.466Z,17.77
2023-04-17T14:35:10.981Z,17.52
2023-04-17T14:37:38.889Z,17.64
2023-04-17T14:40:07.046Z,18.31
2023-04-17T14:42:43.748Z,17.18
2023-04-17T14:45:18.477Z,17.21
2023-04-17T14:47:45.972Z,17.13
2023-04-17T14:50:13.343Z,17.63
2023-04-17T14:52:40.868Z,17.24
2023-04-17T14:55:08.602Z,17.79
2023-04-17T14:57:36.216Z,17.59
2023-04-17T15:00:04.385Z,17.64
2023-04-17T15:02:38.436Z,17.92
2023-04-17T15:05:07.527Z,17.90
2023-04-17T15:07:35.394Z,16.41
2023-04-17T15:10:02.526Z,17.55
2023-04-17T15:12:29.638Z,17.77
2023-04-17T15:14:57.126Z,17.76
2023-04-17T15:17:24.608Z,18.25
2023-04-17T15:19:51.626Z,17.69
2023-04-17T15:22:18.696Z,17.60
2023-04-17T15:24:46.265Z,17.29
2023-04-17T15:27:13.699Z,17.59
2023-04-17T15:29:41.967Z,18.15
2023-04-17T15:32:09.011Z,17.42
2023-04-17T15:34:36.564Z,17.01
2023-04-17T15:37:07.112Z,17.12
2023-04-17T15:39:38.607Z,17.68
2023-04-17T15:42:09.954Z,17.33
2023-04-17T15:44:37.799Z,18.05
2023-04-17T15:47:30.347Z,17.38
2023-04-17T15:49:57.942Z,18.09
2023-04-17T15:52:25.441Z,17.94
2023-04-17T15:54:52.659Z,17.19
2023-04-17T15:57:20.749Z,17.33
2023-04-17T15:59:48.707Z,17.60
2023-04-17T16:02:16.592Z,17.40
2023-04-17T16:04:44.092Z,17.41
2023-04-17T16:07:12.240Z,17.27
2023-04-17T16:09:40.310Z,17.74
2023-04-17T16:12:08.876Z,17.68
2023-04-17T16:14:37.141Z,17.74
2023-04-17T16:17:06.073Z,17.18
2023-04-17T16:19:34.067Z,17.57
2023-04-17T16:22:01.640Z,17.52
2023-04-17T16:24:29.092Z,17.41
2023-04-17T16:26:58.390Z,16.91
2023-04-17T16:29:25.939Z,17.12
2023-04-17T16:31:54.584Z,17.65
2023-04-17T16:34:22.210Z,17.51
2023-04-17T16:36:49.697Z,17.30
2023-04-17T16:39:16.788Z,17.11
2023-04-17T16:41:44.537Z,17.75
2023-04-17T16:44:14.364Z,17.26
2023-04-17T16:47:02.989Z,17.61
2023-04-17T16:49:29.333Z,17.09
2023-04-17T16:51:56.762Z,17.02
2023-04-17T16:54:23.777Z,17.33
2023-04-17T16:56:51.627Z,16.89
2023-04-17T16:59:18.607Z,16.80
2023-04-17T17:01:47.169Z,16.49
2023-04-17T17:04:14.314Z,17.01
2023-04-17T17:06:41.818Z,16.95
2023-04-17T17:09:09.273Z,16.56
2023-04-17T17:11:36.648Z,15.75
2023-04-17T17:14:04.060Z,16.37
2023-04-17T17:16:31.559Z,16.79
2023-04-17T17:19:02.095Z,16.37
2023-04-17T17:21:29.586Z,16.39
2023-04-17T17:24:00.866Z,16.90
2023-04-17T17:26:30.591Z,16.94
2023-04-17T17:28:57.596Z,16.20
2023-04-17T17:31:25.336Z,17.07
2023-04-17T17:34:11.905Z,17.09
2023-04-17T17:36:52.131Z,17.27
2023-04-17T17:39:21.162Z,17.70
2023-04-17T17:41:48.566Z,17.43
2023-04-17T17:44:16.246Z,17.39
2023-04-17T17:46:43.772Z,17.41
2023-04-17T17:49:11.237Z,17.72
2023-04-17T17:51:38.291Z,17.53
2023-04-17T17:54:05.368Z,17.02
2023-04-17T17:56:38.159Z,16.79
2023-04-17T17:59:05.713Z,17.13
2023-04-17T18:01:33.322Z,16.91
2023-04-17T18:04:01.052Z,17.39
2023-04-17T18:06:28.771Z,17.13
2023-04-17T18:08:56.011Z,16.90
2023-04-17T18:11:24.727Z,16.68
2023-04-17T18:13:55.166Z,16.87
2023-04-17T18:16:22.709Z,16.80
2023-04-17T18:18:50.104Z,16.85
2023-04-17T18:21:17.251Z,16.61
2023-04-17T18:23:44.966Z,16.68
2023-04-17T18:26:12.950Z,17.17
2023-04-17T18:28:40.620Z,17.01
2023-04-17T18:31:08.079Z,17.07
2023-04-17T18:33:36.158Z,16.60
2023-04-17T18:36:03.645Z,16.75
2023-04-17T18:38:31.113Z,17.07
2023-04-17T18:40:59.560Z,16.92
2023-04-17T18:43:27.339Z,17.18
2023-04-17T18:45:55.242Z,16.95
2023-04-17T18:48:23.272Z,17.24
2023-04-17T18:50:51.189Z,17.52
2023-04-17T18:53:18.603Z,17.08
2023-04-17T18:55:45.655Z,17.10
2023-04-17T18:58:13.076Z,17.12
2023-04-17T19:00:40.332Z,16.51
2023-04-17T19:03:07.552Z,16.50
2023-04-17T19:05:34.675Z,15.69
2023-04-17T19:08:01.741Z,16.48
2023-04-17T19:10:31.958Z,17.06
2023-04-17T19:12:59.372Z,17.09
2023-04-17T19:15:26.760Z,16.83
2023-04-17T19:17:54.374Z,16.38
2023-04-17T19:20:26.401Z,16.42
2023-04-17T19:22:54.503Z,17.22
2023-04-17T19:25:21.545Z,16.34
2023-04-17T19:27:48.581Z,16.74
2023-04-17T19:30:16.028Z,16.68
2023-04-17T19:32:43.509Z,16.27
2023-04-17T19:35:11.297Z,16.59
2023-04-17T19:37:38.984Z,16.89
2023-04-17T19:40:21.548Z,16.65
2023-04-17T19:43:01.558Z,16.50
2023-04-17T19:45:31.380Z,16.54
2023-04-17T19:48:00.119Z,15.99
2023-04-17T19:50:36.843Z,16.49
2023-04-17T19:53:03.912Z,16.92
2023-04-17T19:55:31.217Z,16.80
2023-04-17T19:57:58.881Z,16.45
2023-04-17T20:00:26.916Z,16.92
2023-04-17T20:02:54.082Z,16.67
2023-04-17T20:05:21.393Z,16.38
2023-04-17T20:07:50.934Z,17.05
2023-04-17T20:10:18.101Z,16.59
2023-04-17T20:12:45.552Z,16.58
2023-04-17T20:15:12.618Z,15.97
2023-04-17T20:17:39.714Z,16.70
2023-04-17T20:20:07.408Z,16.78
2023-04-17T20:22:34.452Z,16.68
2023-04-17T20:25:01.469Z,16.46
2023-04-17T20:27:28.994Z,16.86
2023-04-17T20:29:56.413Z,16.80
2023-04-17T20:32:24.443Z,16.51
2023-04-17T20:34:51.990Z,17.00
2023-04-17T20:37:20.335Z,17.08
2023-04-17T20:39:48.203Z,17.27
2023-04-17T20:42:15.704Z,16.17
2023-04-17T20:44:42.676Z,17.05
2023-04-17T20:47:09.789Z,16.86
2023-04-17T20:49:37.490Z,16.88
2023-04-17T20:52:07.746Z,17.31
2023-04-17T20:54:34.770Z,16.82
2023-04-17T20:57:02.727Z,16.57
2023-04-17T20:59:32.187Z,16.32
2023-04-17T21:01:59.307Z,16.18
2023-04-17T21:04:26.347Z,16.17
2023-04-17T21:06:54.662Z,16.11
2023-04-17T21:09:23.397Z,16.58
2023-04-17T21:11:50.881Z,16.67
2023-04-17T21:14:17.887Z,15.83
2023-04-17T21:16:45.521Z,16.15
2023-04-17T21:19:14.209Z,16.37
2023-04-17T21:21:41.981Z,16.44
2023-04-17T21:24:09.346Z,16.59
2023-04-17T21:26:36.327Z,16.41
2023-04-17T21:29:03.270Z,16.22
2023-04-17T21:31:30.856Z,16.57
2023-04-17T21:33:57.862Z,16.71
2023-04-17T21:36:25.308Z,16.42
2023-04-17T21:38:52.662Z,16.20
2023-04-17T21:41:19.824Z,16.56
2023-04-17T21:43:47.185Z,16.90
2023-04-17T21:46:14.616Z,16.90
2023-04-17T21:48:41.708Z,16.36
2023-04-17T21:51:09.128Z,16.33
2023-04-17T21:53:38.891Z,16.79
2023-04-17T21:56:07.161Z,15.96
2023-04-17T21:58:34.666Z,16.32
2023-04-17T22:01:01.690Z,16.26
2023-04-17T22:03:29.188Z,16.63
2023-04-17T22:05:57.527Z,16.85
2023-04-17T22:08:25.356Z,16.53
2023-04-17T22:10:52.815Z,16.69
2023-04-17T22:13:20.155Z,16.56
2023-04-17T22:15:48.356Z,16.38
2023-04-17T22:18:16.305Z,15.98
2023-04-17T22:20:43.321Z,16.22
2023-04-17T22:23:10.695Z,15.68
2023-04-17T22:25:37.670Z,16.19
2023-04-17T22:28:04.722Z,16.00
2023-04-17T22:30:31.724Z,16.19
2023-04-17T22:32:59.125Z,16.20
2023-04-17T22:35:26.779Z,16.73
2023-04-17T22:37:54.184Z,16.52
2023-04-17T22:40:21.146Z,16.07
2023-04-17T22:42:48.944Z,15.99
2023-04-17T22:45:16.379Z,16.06
2023-04-17T22:47:43.400Z,16.38
2023-04-17T22:50:11.668Z,16.23
2023-04-17T22:52:38.704Z,16.44
2023-04-17T22:55:06.525Z,16.14
2023-04-17T22:57:34.263Z,16.85
2023-04-17T23:00:01.247Z,17.14
2023-04-17T23:02:28.395Z,16.92
2023-04-17T23:04:56.093Z,17.12
2023-04-17T23:07:23.084Z,16.85
2023-04-17T23:09:50.544Z,16.95
2023-04-17T23:12:17.913Z,17.05
2023-04-17T23:14:45.988Z,16.96
2023-04-17T23:17:13.013Z,17.07
2023-04-17T23:19:40.723Z,17.13
2023-04-17T23:22:09.034Z,16.72
2023-04-17T23:24:36.289Z,16.52
2023-04-17T23:27:03.364Z,16.34
2023-04-17T23:29:30.368Z,16.19
2023-04-17T23:31:57.359Z,16.91
2023-04-17T23:34:25.954Z,16.80
2023-04-17T23:36:52.920Z,16.92
2023-04-17T23:39:20.375Z,16.94
2023-04-17T23:41:47.881Z,16.44
2023-04-17T23:44:15.542Z,16.14
2023-04-17T23:46:43.145Z,16.13
2023-04-17T23:49:10.855Z,16.08
2023-04-17T23:51:38.227Z,15.80
2023-04-17T23:54:05.823Z,15.86
2023-04-17T23:56:33.202Z,15.75
2023-04-17T23:59:00.181Z,16.52
